Depesza METAR lotniska Warszawa-Okęcie

METAR = EPWA 200630Z 26010KT 9999 FEW013 16/12 Q1012 NOSIG

STACJA......... EPWA - Warszawa-Okęcie (WAW)
POMIAR......... Wed Aug 20, 08:30 CEST
TERAZ.......... Wed Aug 20, 08:49 CEST
CZAS........... 19 min temu
WIATR.......... zachodni (W) z prędkością 19 km/h
WIDZIALNOŚĆ.. powyżej 10 kilometrów
CHMURY......... zachmurzenie niewielkie (1/8-2/8)
TEMPERATURA.... 16°C
T.PUNKTU ROSY.. 12°C
WILGOTNOŚĆ... 77%
CIŚNIENIE..... 1012 hPa
PROGNOZA....... bez nagłych zmian w ciągu 2h

Depesza METAR lotniska Kraków-Balice

METAR = EPKK 200630Z 24003KT CAVOK 14/13 Q1015

STACJA......... EPKK - Kraków-Balice (KRK)
POMIAR......... Wed Aug 20, 08:30 CEST
TERAZ.......... Wed Aug 20, 08:49 CEST
CZAS........... 19 min temu
WIATR.......... zachodni południowo-zachodni (WSW) z prędkością 6 km/h
WIDZIALNOŚĆ.. powyżej 10 kilometrów
CHMURY......... bezchmurne niebo
TEMPERATURA.... 14°C
T.PUNKTU ROSY.. 13°C
WILGOTNOŚĆ... 94%
CIŚNIENIE..... 1015 hPa

Depesza METAR lotniska Łódź-Lublinek

METAR = EPLL 200630Z 27008KT CAVOK 14/09 Q1014

STACJA......... EPLL - Łódź-Lublinek (LCJ)
POMIAR......... Wed Aug 20, 08:30 CEST
TERAZ.......... Wed Aug 20, 08:49 CEST
CZAS........... 19 min temu
WIATR.......... zachodni (W) z prędkością 15 km/h
WIDZIALNOŚĆ.. powyżej 10 kilometrów
CHMURY......... bezchmurne niebo
TEMPERATURA.... 14°C
T.PUNKTU ROSY.. 9°C
WILGOTNOŚĆ... 72%
CIŚNIENIE..... 1014 hPa

Depesza METAR lotniska Wrocław-Strachowice

METAR = EPWR 200630Z 28010KT 9999 FEW025 15/09 Q1015

STACJA......... EPWR - Wrocław-Strachowice (WRO)
POMIAR......... Wed Aug 20, 08:30 CEST
TERAZ.......... Wed Aug 20, 08:49 CEST
CZAS........... 19 min temu
WIATR.......... zachodni (W) z prędkością 19 km/h
WIDZIALNOŚĆ.. powyżej 10 kilometrów
CHMURY......... zachmurzenie niewielkie (1/8-2/8)
TEMPERATURA.... 15°C
T.PUNKTU ROSY.. 9°C
WILGOTNOŚĆ... 68%
CIŚNIENIE..... 1015 hPa

Depesza METAR lotniska Katowice-Pyrzowice

METAR = EPKT 200630Z 28005KT CAVOK 14/11 Q1015

STACJA......... EPKT - Katowice-Pyrzowice (KTW)
POMIAR......... Wed Aug 20, 08:30 CEST
TERAZ.......... Wed Aug 20, 08:49 CEST
CZAS........... 19 min temu
WIATR.......... zachodni (W) z prędkością 9 km/h
WIDZIALNOŚĆ.. powyżej 10 kilometrów
CHMURY......... bezchmurne niebo
TEMPERATURA.... 14°C
T.PUNKTU ROSY.. 11°C
WILGOTNOŚĆ... 82%
CIŚNIENIE..... 1015 hPa

Depesza METAR lotniska Gdańsk

METAR = EPGD 200630Z 25013KT 210V270 9999 SCT020 13/08 Q1008

STACJA......... EPGD - Gdańsk im. Lecha Wałęsy (GDN)
POMIAR......... Wed Aug 20, 08:30 CEST
TERAZ.......... Wed Aug 20, 08:49 CEST
CZAS........... 19 min temu
WIATR.......... zachodni południowo-zachodni (WSW) z prędkością 24 km/h
WIDZIALNOŚĆ.. powyżej 10 kilometrów
CHMURY......... zachmurzenie małe (3/8-4/8)
TEMPERATURA.... 13°C
T.PUNKTU ROSY.. 8°C
WILGOTNOŚĆ... 72%
CIŚNIENIE..... 1008 hPa

Depesza METAR lotniska Poznań-Ławica

METAR = EPPO 200630Z 24016KT 9999 SCT016 13/08 Q1013

STACJA......... EPPO - Poznań-Ławica (POZ)
POMIAR......... Wed Aug 20, 08:30 CEST
TERAZ.......... Wed Aug 20, 08:49 CEST
CZAS........... 19 min temu
WIATR.......... zachodni południowo-zachodni (WSW) z prędkością 30 km/h
WIDZIALNOŚĆ.. powyżej 10 kilometrów
CHMURY......... zachmurzenie małe (3/8-4/8)
TEMPERATURA.... 13°C
T.PUNKTU ROSY.. 8°C
WILGOTNOŚĆ... 72%
CIŚNIENIE..... 1013 hPa

Depesza METAR lotniska Rzeszów-Jasionka

METAR = EPRZ 200630Z 24007KT CAVOK 17/16 Q1015

STACJA......... EPRZ - Rzeszów-Jasionka (RZE)
POMIAR......... Wed Aug 20, 08:30 CEST
TERAZ.......... Wed Aug 20, 08:49 CEST
CZAS........... 19 min temu
WIATR.......... zachodni południowo-zachodni (WSW) z prędkością 13 km/h
WIDZIALNOŚĆ.. powyżej 10 kilometrów
CHMURY......... bezchmurne niebo
TEMPERATURA.... 17°C
T.PUNKTU ROSY.. 16°C
WILGOTNOŚĆ... 94%
CIŚNIENIE..... 1015 hPa

Depesza METAR lotniska Szczecin-Goleniów

METAR = EPSC 200630Z 21010KT 170V240 9999 SCT013 BKN021 11/09 Q1010

STACJA......... EPSC - Szczecin-Goleniów (SZZ)
POMIAR......... Wed Aug 20, 08:30 CEST
TERAZ.......... Wed Aug 20, 08:49 CEST
CZAS........... 19 min temu
WIATR.......... południowo południowo-zachodni  (SSW) z prędkością 19 km/h
WIDZIALNOŚĆ.. powyżej 10 kilometrów
CHMURY......... zachmurzenie średnie (5/8-7/8)
TEMPERATURA.... 11°C
T.PUNKTU ROSY.. 9°C
WILGOTNOŚĆ... 88%
CIŚNIENIE..... 1010 hPa

Depesza METAR lotniska Lublin-Świdnik

METAR = EPLB 221500Z VRB01KT 9999 FEW020 BKN080 26/23 Q1009 NOSIG

STACJA......... EPLB - Lublin-Świdnik (LUZ)
POMIAR......... Mon Aug 22, 17:00 CEST
TERAZ.......... Wed Aug 20, 08:49 CEST
CZAS........... 26247:49 godz temu
WIATR.......... zmienny z prędkością 2 km/h
WIDZIALNOŚĆ.. powyżej 10 kilometrów
CHMURY......... zachmurzenie średnie (5/8-7/8)
TEMPERATURA.... 26°C
T.PUNKTU ROSY.. 23°C
WILGOTNOŚĆ... 84%
CIŚNIENIE..... 1009 hPa
PROGNOZA....... bez nagłych zmian w ciągu 2h

Sprawdź też: prognoza pogody dla miast w Polsce!